createdAt,value
2019-02-16T00:02:28.944Z,100.00
2019-02-16T00:04:57.223Z,100.00
2019-02-16T00:07:25.504Z,100.00
2019-02-16T00:09:54.111Z,100.00
2019-02-16T00:12:22.795Z,100.00
2019-02-16T00:14:51.109Z,100.00
2019-02-16T00:17:19.371Z,100.00
2019-02-16T00:19:47.672Z,100.00
2019-02-16T00:22:15.956Z,100.00
2019-02-16T00:24:44.599Z,100.00
2019-02-16T00:27:12.869Z,100.00
2019-02-16T00:29:41.185Z,100.00
2019-02-16T00:32:09.486Z,100.00
2019-02-16T00:34:37.735Z,100.00
2019-02-16T00:37:05.982Z,100.00
2019-02-16T00:39:34.256Z,100.00
2019-02-16T00:42:02.551Z,100.00
2019-02-16T00:44:30.932Z,100.00
2019-02-16T00:46:59.195Z,100.00
2019-02-16T00:49:27.430Z,100.00
2019-02-16T00:51:55.817Z,100.00
2019-02-16T00:54:24.078Z,100.00
2019-02-16T00:56:52.337Z,100.00
2019-02-16T00:59:20.615Z,100.00
2019-02-16T01:01:48.866Z,100.00
2019-02-16T01:04:17.237Z,100.00
2019-02-16T01:06:45.484Z,100.00
2019-02-16T01:09:13.728Z,100.00
2019-02-16T01:11:42.001Z,100.00
2019-02-16T01:14:10.258Z,100.00
2019-02-16T01:16:38.557Z,100.00
2019-02-16T01:19:06.803Z,100.00
2019-02-16T01:21:35.105Z,100.00
2019-02-16T01:24:04.036Z,100.00
2019-02-16T01:26:32.286Z,100.00
2019-02-16T01:29:01.153Z,100.00
2019-02-16T01:31:29.421Z,100.00
2019-02-16T01:33:57.672Z,100.00
2019-02-16T01:36:26.019Z,100.00
2019-02-16T01:38:54.273Z,100.00
2019-02-16T01:41:22.521Z,100.00
2019-02-16T01:43:50.827Z,100.00
2019-02-16T01:46:19.344Z,100.00
2019-02-16T01:48:47.618Z,100.00
2019-02-16T01:51:15.877Z,100.00
2019-02-16T01:53:44.224Z,100.00
2019-02-16T01:56:12.568Z,100.00
2019-02-16T01:58:40.864Z,100.00
2019-02-16T02:01:09.224Z,100.00
2019-02-16T02:03:37.585Z,100.00
2019-02-16T02:06:05.823Z,100.00
2019-02-16T02:08:34.134Z,100.00
2019-02-16T02:11:02.605Z,100.00
2019-02-16T02:13:30.879Z,100.00
2019-02-16T02:15:59.132Z,100.00
2019-02-16T02:18:27.415Z,100.00
2019-02-16T02:20:55.701Z,100.00
2019-02-16T02:23:23.966Z,100.00
2019-02-16T02:25:52.405Z,100.00
2019-02-16T02:28:20.634Z,100.00
2019-02-16T02:30:48.884Z,100.00
2019-02-16T02:33:17.720Z,100.00
2019-02-16T02:35:45.965Z,100.00
2019-02-16T02:38:14.213Z,100.00
2019-02-16T02:40:42.489Z,100.00
2019-02-16T02:43:10.820Z,100.00
2019-02-16T02:45:39.070Z,100.00
2019-02-16T02:48:07.389Z,100.00
2019-02-16T02:50:35.625Z,100.00
2019-02-16T02:53:03.959Z,100.00
2019-02-16T02:55:32.197Z,100.00
2019-02-16T02:58:00.559Z,100.00
2019-02-16T03:00:28.792Z,100.00
2019-02-16T03:02:57.102Z,100.00
2019-02-16T03:05:25.378Z,100.00
2019-02-16T03:07:53.627Z,100.00
2019-02-16T03:10:21.998Z,100.00
2019-02-16T03:12:50.303Z,100.00
2019-02-16T03:15:18.544Z,100.00
2019-02-16T03:17:46.816Z,100.00
2019-02-16T03:20:15.058Z,100.00
2019-02-16T03:23:17.775Z,100.00
2019-02-16T03:25:52.069Z,100.00
2019-02-16T03:28:35.603Z,100.00
2019-02-16T03:31:07.104Z,100.00
2019-02-16T03:33:38.674Z,100.00
2019-02-16T03:36:10.241Z,100.00
2019-02-16T03:38:41.758Z,100.00
2019-02-16T03:41:10.061Z,100.00
2019-02-16T03:43:38.319Z,100.00
2019-02-16T03:46:06.681Z,100.00
2019-02-16T03:48:36.666Z,100.00
2019-02-16T03:51:04.905Z,100.00
2019-02-16T03:53:33.204Z,100.00
2019-02-16T03:56:01.463Z,100.00
2019-02-16T03:58:29.747Z,100.00
2019-02-16T04:00:58.064Z,100.00
2019-02-16T04:03:26.352Z,100.00
2019-02-16T04:05:54.714Z,100.00
2019-02-16T04:08:22.959Z,100.00
2019-02-16T04:10:51.204Z,100.00
2019-02-16T04:13:19.475Z,100.00
2019-02-16T04:15:47.835Z,100.00
2019-02-16T04:18:16.509Z,100.00
2019-02-16T04:20:44.881Z,100.00
2019-02-16T04:23:14.434Z,100.00
2019-02-16T04:25:42.665Z,100.00
2019-02-16T04:28:10.949Z,100.00
2019-02-16T04:30:39.262Z,100.00
2019-02-16T04:33:07.582Z,100.00
2019-02-16T04:35:36.105Z,100.00
2019-02-16T04:38:04.397Z,100.00
2019-02-16T04:40:32.700Z,100.00
2019-02-16T04:43:00.996Z,100.00
2019-02-16T04:45:29.322Z,100.00
2019-02-16T04:47:57.641Z,100.00
2019-02-16T04:50:25.919Z,100.00
2019-02-16T04:52:54.214Z,100.00
2019-02-16T04:55:22.538Z,100.00
2019-02-16T04:57:50.865Z,100.00
2019-02-16T05:00:19.152Z,100.00
2019-02-16T05:02:47.382Z,100.00
2019-02-16T05:05:15.763Z,100.00
2019-02-16T05:07:44.343Z,100.00
2019-02-16T05:10:12.588Z,100.00
2019-02-16T05:12:40.854Z,100.00
2019-02-16T05:15:09.884Z,100.00
2019-02-16T05:17:38.147Z,100.00
2019-02-16T05:20:07.208Z,100.00
2019-02-16T05:22:44.323Z,100.00
2019-02-16T05:25:05.720Z,100.00
2019-02-16T05:27:34.030Z,100.00
2019-02-16T05:30:02.298Z,100.00
2019-02-16T05:32:30.553Z,100.00
2019-02-16T05:34:58.874Z,100.00
2019-02-16T05:37:27.127Z,100.00
2019-02-16T05:39:55.419Z,100.00
2019-02-16T05:42:23.662Z,100.00
2019-02-16T05:44:52.087Z,100.00
2019-02-16T05:47:20.334Z,100.00
2019-02-16T05:49:48.577Z,100.00
2019-02-16T05:52:16.855Z,100.00
2019-02-16T05:54:45.161Z,100.00
2019-02-16T05:57:13.470Z,100.00
2019-02-16T05:59:41.753Z,100.00
2019-02-16T06:02:10.131Z,100.00
2019-02-16T06:04:38.404Z,100.00
2019-02-16T06:07:06.694Z,100.00
2019-02-16T06:09:35.061Z,100.00
2019-02-16T06:12:03.317Z,100.00
2019-02-16T06:14:31.565Z,100.00
2019-02-16T06:16:59.834Z,100.00
2019-02-16T06:19:28.145Z,100.00
2019-02-16T06:21:56.462Z,100.00
2019-02-16T06:24:25.025Z,100.00
2019-02-16T06:26:53.611Z,100.00
2019-02-16T06:29:21.920Z,100.00
2019-02-16T06:31:50.288Z,100.00
2019-02-16T06:34:18.536Z,100.00
2019-02-16T06:36:46.795Z,100.00
2019-02-16T06:39:15.076Z,100.00
2019-02-16T06:41:43.351Z,100.00
2019-02-16T06:44:11.598Z,100.00
2019-02-16T06:46:39.930Z,100.00
2019-02-16T06:49:08.181Z,100.00
2019-02-16T06:51:36.421Z,100.00
2019-02-16T06:54:04.707Z,100.00
2019-02-16T06:56:34.608Z,100.00
2019-02-16T06:59:02.914Z,100.00
2019-02-16T07:01:33.114Z,100.00
2019-02-16T07:04:01.177Z,100.00
2019-02-16T07:06:29.538Z,100.00
2019-02-16T07:08:57.789Z,100.00
2019-02-16T07:11:26.086Z,100.00
2019-02-16T07:13:54.574Z,100.00
2019-02-16T07:16:28.075Z,100.00
2019-02-16T07:19:00.452Z,100.00
2019-02-16T07:21:28.811Z,100.00
2019-02-16T07:23:57.058Z,100.00
2019-02-16T07:26:25.387Z,100.00
2019-02-16T07:28:53.656Z,100.00
2019-02-16T07:31:21.907Z,100.00
2019-02-16T07:33:50.178Z,100.00
2019-02-16T07:36:18.633Z,100.00
2019-02-16T07:38:46.892Z,100.00
2019-02-16T07:41:15.184Z,100.00
2019-02-16T07:43:50.559Z,100.00
2019-02-16T07:46:32.432Z,100.00
2019-02-16T07:49:17.694Z,100.00
2019-02-16T07:52:03.945Z,100.00
2019-02-16T07:54:33.890Z,100.00
2019-02-16T07:57:06.716Z,100.00
2019-02-16T07:59:42.067Z,100.00
2019-02-16T08:02:12.012Z,100.00
2019-02-16T08:04:44.624Z,100.00
2019-02-16T08:07:16.941Z,100.00
2019-02-16T08:09:47.007Z,100.00
2019-02-16T08:12:28.809Z,100.00
2019-02-16T08:14:58.794Z,100.00
2019-02-16T08:17:40.994Z,100.00
2019-02-16T08:20:10.967Z,100.00
2019-02-16T08:22:57.556Z,100.00
2019-02-16T08:25:30.404Z,100.00
2019-02-16T08:28:00.354Z,100.00
2019-02-16T08:30:36.179Z,100.00
2019-02-16T08:33:06.072Z,100.00
2019-02-16T08:35:35.974Z,100.00
2019-02-16T08:38:08.941Z,100.00
2019-02-16T08:40:38.914Z,100.00
2019-02-16T08:43:11.517Z,100.00
2019-02-16T08:45:50.296Z,100.00
2019-02-16T08:48:20.243Z,100.00
2019-02-16T08:51:08.080Z,100.00
2019-02-16T08:53:50.260Z,100.00
2019-02-16T08:56:28.740Z,100.00
2019-02-16T08:59:01.189Z,100.00
2019-02-16T09:01:36.996Z,100.00
2019-02-16T09:04:06.886Z,100.00
2019-02-16T09:06:39.217Z,100.00
2019-02-16T09:09:21.109Z,100.00
2019-02-16T09:12:00.001Z,100.00
2019-02-16T09:14:36.187Z,100.00
2019-02-16T09:17:14.846Z,100.00
2019-02-16T09:19:44.865Z,100.00
2019-02-16T09:22:20.685Z,100.00
2019-02-16T09:24:50.705Z,100.00
2019-02-16T09:27:20.598Z,100.00
2019-02-16T09:29:50.496Z,100.00
2019-02-16T09:32:29.627Z,100.00
2019-02-16T09:35:05.285Z,100.00
2019-02-16T09:37:40.719Z,100.00
2019-02-16T09:40:10.609Z,100.00
2019-02-16T09:42:40.553Z,100.00
2019-02-16T09:45:19.694Z,100.00
2019-02-16T09:48:01.678Z,100.00
2019-02-16T09:50:43.542Z,100.00
2019-02-16T09:53:19.387Z,100.00
2019-02-16T09:55:49.319Z,100.00
2019-02-16T09:58:28.047Z,100.00
2019-02-16T10:01:12.906Z,100.00
2019-02-16T10:03:48.956Z,100.00
2019-02-16T10:06:21.820Z,100.00
2019-02-16T10:09:06.769Z,100.00
2019-02-16T10:11:36.798Z,100.00
2019-02-16T10:14:06.704Z,100.00
2019-02-16T10:16:52.771Z,100.00
2019-02-16T10:19:25.685Z,100.00
2019-02-16T10:22:04.602Z,100.00
2019-02-16T10:24:49.606Z,100.00
2019-02-16T10:27:19.578Z,100.00
2019-02-16T10:30:05.603Z,100.00
2019-02-16T10:32:51.716Z,100.00
2019-02-16T10:35:24.546Z,100.00
2019-02-16T10:38:00.481Z,100.00
2019-02-16T10:40:39.176Z,100.00
2019-02-16T10:43:14.832Z,100.00
2019-02-16T10:45:53.323Z,100.00
2019-02-16T10:48:25.985Z,100.00
2019-02-16T10:50:58.943Z,100.00
2019-02-16T10:53:31.674Z,100.00
2019-02-16T10:56:04.399Z,100.00
2019-02-16T10:58:50.564Z,100.00
2019-02-16T11:01:36.956Z,100.00
2019-02-16T11:04:06.851Z,100.00
2019-02-16T11:06:44.098Z,100.00
2019-02-16T11:09:22.811Z,100.00
2019-02-16T11:12:10.902Z,98.32
2019-02-16T11:14:40.831Z,97.32
2019-02-16T11:17:22.857Z,97.52
2019-02-16T11:20:04.802Z,95.95
2019-02-16T11:22:53.155Z,95.89
2019-02-16T11:25:35.320Z,95.55
2019-02-16T11:28:05.238Z,95.76
2019-02-16T11:30:37.951Z,94.99
2019-02-16T11:33:10.587Z,94.13
2019-02-16T11:35:40.522Z,93.91
2019-02-16T11:38:10.558Z,94.00
2019-02-16T11:40:40.454Z,92.68
2019-02-16T11:43:26.378Z,93.52
2019-02-16T11:45:59.028Z,94.28
2019-02-16T11:48:34.720Z,93.15
2019-02-16T11:51:23.069Z,90.89
2019-02-16T11:54:04.835Z,91.18
2019-02-16T11:56:37.433Z,92.27
2019-02-16T11:59:22.590Z,92.66
2019-02-16T12:01:58.774Z,91.75
2019-02-16T12:04:31.080Z,92.24
2019-02-16T12:07:16.119Z,93.17
2019-02-16T12:09:54.899Z,91.56
2019-02-16T12:12:39.576Z,92.61
2019-02-16T12:15:24.526Z,93.43
2019-02-16T12:18:03.393Z,93.84
2019-02-16T12:20:42.211Z,92.76
2019-02-16T12:23:12.209Z,94.77
2019-02-16T12:26:00.085Z,93.80
2019-02-16T12:28:46.691Z,91.75
2019-02-16T12:31:19.518Z,91.82
2019-02-16T12:33:52.397Z,91.83
2019-02-16T12:36:34.064Z,93.05
2019-02-16T12:39:09.516Z,94.07
2019-02-16T12:41:42.118Z,94.12
2019-02-16T12:44:20.903Z,91.23
2019-02-16T12:47:07.358Z,92.37
2019-02-16T12:49:40.085Z,93.68
2019-02-16T12:52:15.645Z,94.48
2019-02-16T12:54:48.238Z,94.21
2019-02-16T12:57:20.943Z,93.96
2019-02-16T12:59:53.579Z,94.48
2019-02-16T13:02:29.027Z,93.44
2019-02-16T13:05:11.100Z,94.00
2019-02-16T13:07:46.833Z,91.95
2019-02-16T13:10:31.036Z,92.87
2019-02-16T13:13:01.068Z,94.48
2019-02-16T13:15:49.093Z,93.72
2019-02-16T13:18:19.053Z,94.48
2019-02-16T13:20:58.021Z,93.15
2019-02-16T13:23:30.717Z,94.01
2019-02-16T13:26:03.067Z,93.59
2019-02-16T13:28:45.356Z,93.66
2019-02-16T13:31:33.494Z,92.98
2019-02-16T13:34:18.569Z,93.17
2019-02-16T13:36:55.131Z,94.25
2019-02-16T13:39:30.537Z,92.87
2019-02-16T13:42:00.504Z,91.10
2019-02-16T13:44:30.392Z,91.63
2019-02-16T13:47:06.106Z,91.12
2019-02-16T13:49:38.733Z,90.97
2019-02-16T13:52:24.082Z,92.14
2019-02-16T13:54:53.965Z,93.02
2019-02-16T13:57:29.681Z,91.08
2019-02-16T14:00:02.427Z,89.68
2019-02-16T14:02:32.325Z,90.26
2019-02-16T14:05:04.917Z,90.59
2019-02-16T14:07:41.003Z,91.23
2019-02-16T14:10:16.585Z,91.85
2019-02-16T14:13:02.640Z,91.48
2019-02-16T14:15:44.373Z,91.27
2019-02-16T14:18:12.712Z,91.71
2019-02-16T14:20:40.964Z,92.48
2019-02-16T14:23:09.243Z,92.77
2019-02-16T14:25:43.848Z,93.61
2019-02-16T14:28:09.172Z,94.16
2019-02-16T14:30:37.444Z,92.64
2019-02-16T14:33:06.271Z,92.40
2019-02-16T14:35:34.596Z,92.37
2019-02-16T14:38:07.300Z,93.25
2019-02-16T14:40:35.527Z,92.06
2019-02-16T14:43:03.778Z,92.28
2019-02-16T14:45:33.732Z,88.81
2019-02-16T14:48:02.005Z,89.86
2019-02-16T14:50:30.325Z,88.75
2019-02-16T14:52:58.576Z,88.89
2019-02-16T14:55:27.005Z,89.51
2019-02-16T14:57:55.250Z,89.86
2019-02-16T15:00:23.505Z,90.21
2019-02-16T15:02:51.785Z,90.14
2019-02-16T15:05:20.042Z,88.66
2019-02-16T15:07:48.362Z,88.18
2019-02-16T15:10:16.620Z,88.99
2019-02-16T15:12:44.921Z,88.13
2019-02-16T15:15:13.201Z,88.60
2019-02-16T15:17:41.464Z,89.11
2019-02-16T15:20:12.420Z,89.46
2019-02-16T15:22:40.725Z,89.15
2019-02-16T15:25:10.920Z,88.17
2019-02-16T15:27:40.528Z,89.13
2019-02-16T15:30:11.527Z,89.97
2019-02-16T15:32:39.861Z,90.67
2019-02-16T15:35:09.763Z,91.40
2019-02-16T15:37:38.154Z,91.31
2019-02-16T15:40:30.910Z,91.83
2019-02-16T15:42:59.287Z,92.20
2019-02-16T15:45:27.657Z,91.48
2019-02-16T15:47:55.906Z,92.06
2019-02-16T15:50:24.184Z,92.45
2019-02-16T15:52:52.443Z,92.88
2019-02-16T15:55:20.750Z,93.25
2019-02-16T15:57:49.042Z,93.51
2019-02-16T16:00:21.827Z,93.61
2019-02-16T16:02:50.070Z,93.60
2019-02-16T16:05:18.328Z,93.88
2019-02-16T16:07:48.256Z,94.37
2019-02-16T16:10:23.837Z,94.72
2019-02-16T16:13:09.885Z,95.21
2019-02-16T16:15:44.715Z,95.62
2019-02-16T16:18:22.940Z,95.83
2019-02-16T16:21:08.752Z,96.08
2019-02-16T16:23:38.703Z,96.43
2019-02-16T16:26:08.599Z,96.73
2019-02-16T16:28:38.571Z,96.90
2019-02-16T16:31:11.649Z,97.12
2019-02-16T16:33:52.127Z,97.25
2019-02-16T16:36:34.113Z,97.48
2019-02-16T16:39:09.781Z,97.72
2019-02-16T16:41:45.782Z,97.80
2019-02-16T16:44:22.290Z,98.02
2019-02-16T16:46:52.215Z,98.23
2019-02-16T16:49:24.579Z,98.50
2019-02-16T16:52:09.553Z,98.85
2019-02-16T16:54:57.701Z,99.21
2019-02-16T16:57:30.433Z,99.39
2019-02-16T17:00:16.646Z,99.79
2019-02-16T17:03:03.035Z,100.00
2019-02-16T17:05:32.948Z,100.00
2019-02-16T17:08:19.025Z,100.00
2019-02-16T17:10:48.928Z,100.00
2019-02-16T17:13:27.659Z,100.00
2019-02-16T17:16:00.714Z,100.00
2019-02-16T17:18:30.617Z,100.00
2019-02-16T17:21:00.605Z,100.00
2019-02-16T17:23:35.057Z,100.00
2019-02-16T17:26:17.082Z,100.00
2019-02-16T17:28:47.029Z,100.00
2019-02-16T17:31:16.928Z,100.00
2019-02-16T17:33:46.856Z,100.00
2019-02-16T17:36:26.221Z,100.00
2019-02-16T17:39:12.440Z,100.00
2019-02-16T17:41:47.926Z,100.00
2019-02-16T17:44:33.177Z,100.00
2019-02-16T17:47:19.097Z,100.00
2019-02-16T17:49:54.904Z,100.00
2019-02-16T17:52:30.980Z,100.00
2019-02-16T17:55:06.959Z,100.00
2019-02-16T17:57:36.891Z,100.00
2019-02-16T18:00:12.484Z,100.00
2019-02-16T18:02:48.181Z,100.00
2019-02-16T18:05:34.303Z,100.00
2019-02-16T18:08:04.253Z,100.00
2019-02-16T18:10:49.317Z,100.00
2019-02-16T18:13:34.586Z,100.00
2019-02-16T18:16:13.703Z,100.00
2019-02-16T18:18:43.600Z,100.00
2019-02-16T18:21:16.339Z,100.00
2019-02-16T18:23:49.314Z,100.00
2019-02-16T18:26:37.359Z,100.00
2019-02-16T18:29:19.536Z,100.00
2019-02-16T18:32:05.736Z,100.00
2019-02-16T18:34:38.847Z,100.00
2019-02-16T18:37:09.217Z,100.00
2019-02-16T18:39:41.974Z,100.00
2019-02-16T18:42:12.435Z,100.00
2019-02-16T18:44:48.064Z,100.00
2019-02-16T18:47:36.357Z,100.00
2019-02-16T18:50:09.468Z,100.00
2019-02-16T18:52:46.012Z,100.00
2019-02-16T18:55:15.927Z,100.00
2019-02-16T18:58:02.116Z,100.00
2019-02-16T19:00:32.056Z,100.00
2019-02-16T19:03:04.794Z,100.00
2019-02-16T19:05:44.416Z,100.00
2019-02-16T19:08:19.985Z,100.00
2019-02-16T19:10:49.957Z,100.00
2019-02-16T19:13:36.181Z,100.00
2019-02-16T19:16:09.071Z,100.00
2019-02-16T19:18:39.095Z,100.00
2019-02-16T19:21:11.668Z,100.00
2019-02-16T19:23:50.469Z,100.00
2019-02-16T19:26:36.356Z,100.00
2019-02-16T19:29:06.252Z,100.00
2019-02-16T19:31:36.334Z,100.00
2019-02-16T19:34:12.347Z,100.00
2019-02-16T19:36:54.303Z,100.00
2019-02-16T19:39:40.435Z,100.00
2019-02-16T19:42:13.190Z,100.00
2019-02-16T19:44:55.721Z,100.00
2019-02-16T19:47:41.635Z,100.00
2019-02-16T19:50:11.534Z,100.00
2019-02-16T19:52:41.511Z,100.00
2019-02-16T19:55:11.452Z,100.00
2019-02-16T19:57:47.175Z,100.00
2019-02-16T20:00:32.135Z,100.00
2019-02-16T20:03:16.753Z,100.00
2019-02-16T20:05:52.830Z,100.00
2019-02-16T20:08:37.504Z,100.00
2019-02-16T20:11:08.923Z,100.00
2019-02-16T20:13:54.955Z,100.00
2019-02-16T20:16:30.998Z,100.00
2019-02-16T20:19:01.088Z,100.00
2019-02-16T20:21:33.710Z,100.00
2019-02-16T20:24:03.618Z,100.00
2019-02-16T20:26:52.015Z,100.00
2019-02-16T20:29:27.678Z,100.00
2019-02-16T20:32:15.622Z,100.00
2019-02-16T20:34:45.249Z,100.00
2019-02-16T20:37:18.055Z,100.00
2019-02-16T20:39:59.998Z,100.00
2019-02-16T20:42:35.435Z,100.00
2019-02-16T20:45:08.413Z,100.00
2019-02-16T20:47:38.427Z,100.00
2019-02-16T20:50:11.269Z,100.00
2019-02-16T20:52:53.276Z,100.00
2019-02-16T20:55:39.655Z,100.00
2019-02-16T20:58:26.126Z,100.00
2019-02-16T21:01:14.120Z,100.00
2019-02-16T21:03:44.032Z,100.00
2019-02-16T21:06:16.429Z,100.00
2019-02-16T21:09:02.657Z,100.00
2019-02-16T21:11:50.689Z,100.00
2019-02-16T21:14:32.491Z,100.00
2019-02-16T21:17:05.117Z,100.00
2019-02-16T21:19:51.317Z,100.00
2019-02-16T21:22:21.280Z,100.00
2019-02-16T21:25:03.390Z,100.00
2019-02-16T21:27:36.510Z,100.00
2019-02-16T21:30:08.745Z,100.00
2019-02-16T21:32:54.555Z,100.00
2019-02-16T21:35:33.943Z,100.00
2019-02-16T21:38:16.135Z,100.00
2019-02-16T21:40:49.121Z,100.00
2019-02-16T21:43:38.131Z,100.00
2019-02-16T21:46:11.027Z,100.00
2019-02-16T21:48:40.927Z,100.00
2019-02-16T21:51:27.211Z,100.00
2019-02-16T21:53:57.104Z,100.00
2019-02-16T21:56:29.615Z,100.00
2019-02-16T21:59:07.483Z,100.00
2019-02-16T22:01:43.189Z,100.00
2019-02-16T22:04:18.798Z,100.00
2019-02-16T22:06:48.803Z,100.00
2019-02-16T22:09:34.873Z,100.00
2019-02-16T22:12:21.352Z,100.00
2019-02-16T22:14:51.197Z,100.00
2019-02-16T22:17:19.471Z,100.00
2019-02-16T22:19:47.740Z,100.00
2019-02-16T22:22:16.011Z,100.00
2019-02-16T22:24:44.319Z,100.00
2019-02-16T22:27:12.594Z,100.00
2019-02-16T22:29:40.871Z,100.00
2019-02-16T22:32:09.124Z,100.00
2019-02-16T22:34:37.532Z,100.00
2019-02-16T22:37:05.796Z,100.00
2019-02-16T22:39:34.086Z,100.00
2019-02-16T22:42:02.459Z,100.00
2019-02-16T22:44:30.708Z,100.00
2019-02-16T22:46:59.009Z,100.00
2019-02-16T22:49:27.316Z,100.00
2019-02-16T22:51:55.678Z,100.00
2019-02-16T22:54:23.930Z,100.00
2019-02-16T22:56:52.349Z,100.00
2019-02-16T22:59:20.601Z,100.00
2019-02-16T23:01:48.857Z,100.00
2019-02-16T23:04:18.002Z,100.00
2019-02-16T23:06:46.435Z,100.00
2019-02-16T23:09:22.188Z,100.00
2019-02-16T23:11:50.578Z,100.00
2019-02-16T23:14:18.826Z,100.00
2019-02-16T23:16:47.106Z,100.00
2019-02-16T23:19:15.439Z,100.00
2019-02-16T23:21:43.788Z,100.00
2019-02-16T23:24:12.049Z,100.00
2019-02-16T23:26:40.357Z,100.00
2019-02-16T23:29:08.698Z,100.00
2019-02-16T23:31:37.001Z,100.00
2019-02-16T23:34:05.259Z,100.00
2019-02-16T23:36:33.564Z,100.00
2019-02-16T23:39:01.872Z,100.00
2019-02-16T23:41:30.120Z,100.00
2019-02-16T23:43:58.505Z,100.00
2019-02-16T23:46:26.763Z,100.00
2019-02-16T23:48:55.028Z,100.00
2019-02-16T23:51:23.333Z,100.00
2019-02-16T23:53:51.584Z,100.00
2019-02-16T23:56:19.887Z,100.00
2019-02-16T23:58:49.577Z,100.00
